createdAt,value
2022-10-22T15:32:58.314Z,20.02
2022-10-22T15:37:51.658Z,24.52
2022-10-22T15:41:19.512Z,22.83
2022-10-22T15:44:25.273Z,20.77
2022-10-22T15:47:29.646Z,18.05
2022-10-22T15:50:32.345Z,19.30
2022-10-22T15:53:34.662Z,21.50
2022-10-22T15:56:37.195Z,20.73
2022-10-22T15:59:39.518Z,19.95
2022-10-22T16:02:42.060Z,22.35
2022-10-22T16:05:54.552Z,19.62
2022-10-22T16:08:59.313Z,21.83
2022-10-22T16:12:02.014Z,23.62
2022-10-22T16:15:04.670Z,23.87
2022-10-22T16:18:07.350Z,23.55
2022-10-22T16:21:13.725Z,24.45
2022-10-22T16:24:16.726Z,27.37
2022-10-22T16:27:19.036Z,22.52
2022-10-22T16:30:21.623Z,24.67
2022-10-22T16:33:23.930Z,25.20
2022-10-22T16:36:26.613Z,23.27
2022-10-22T16:39:28.928Z,27.00
2022-10-22T16:42:31.439Z,24.75
2022-10-22T16:45:33.687Z,23.40
2022-10-22T16:48:40.411Z,25.50
2022-10-22T16:51:42.703Z,25.95
2022-10-22T16:54:46.766Z,24.47
2022-10-22T16:57:52.378Z,30.33
2022-10-22T17:00:54.955Z,35.00
2022-10-22T17:04:00.431Z,35.63
2022-10-22T17:07:02.974Z,28.20
2022-10-22T17:10:05.883Z,24.90
2022-10-22T17:13:08.479Z,29.25
2022-10-22T17:16:13.907Z,29.33
2022-10-22T17:19:16.550Z,27.17
2022-10-22T17:22:18.850Z,26.37
2022-10-22T17:25:47.616Z,28.17
2022-10-22T17:28:50.660Z,26.55
2022-10-22T17:31:53.244Z,24.58
2022-10-22T17:34:55.518Z,26.77
2022-10-22T17:37:58.058Z,24.05
2022-10-22T17:41:05.706Z,31.47
2022-10-22T17:44:12.306Z,27.15
2022-10-22T17:47:15.101Z,25.42
2022-10-22T17:50:18.919Z,28.58
2022-10-22T17:53:21.191Z,28.87
2022-10-22T17:56:29.827Z,26.37
2022-10-22T17:59:32.759Z,23.58
2022-10-22T18:02:35.324Z,25.85
2022-10-22T18:05:37.842Z,22.85
2022-10-22T18:08:40.426Z,24.50
2022-10-22T18:11:44.103Z,25.77
2022-10-22T18:14:47.118Z,22.83
2022-10-22T18:17:50.341Z,29.52
2022-10-22T18:20:53.374Z,23.15
2022-10-22T18:23:58.943Z,23.58
2022-10-22T18:27:01.214Z,22.27
2022-10-22T18:30:04.131Z,27.40
2022-10-22T18:33:07.214Z,24.45
2022-10-22T18:36:12.416Z,29.10
2022-10-22T18:39:15.501Z,26.77
2022-10-22T18:42:18.116Z,26.87
2022-10-22T18:45:20.372Z,24.92
2022-10-22T18:48:23.098Z,27.58
2022-10-22T18:51:30.886Z,26.40
2022-10-22T18:54:33.492Z,25.40
2022-10-22T18:57:35.851Z,28.77
2022-10-22T19:00:38.670Z,26.58
2022-10-22T19:03:41.415Z,29.67
2022-10-22T19:06:45.780Z,28.77
2022-10-22T19:09:48.460Z,29.00
2022-10-22T19:12:51.024Z,28.90
2022-10-22T19:15:53.265Z,30.48
2022-10-22T19:19:03.048Z,29.02
2022-10-22T19:22:05.324Z,31.65
2022-10-22T19:25:11.217Z,29.08
2022-10-22T19:28:14.394Z,30.87
2022-10-22T19:31:19.674Z,31.08
2022-10-22T19:34:22.066Z,31.60
2022-10-22T19:37:24.686Z,26.67
2022-10-22T19:40:28.390Z,31.87
2022-10-22T19:43:30.907Z,28.23
2022-10-22T19:46:33.212Z,30.40
2022-10-22T19:49:35.779Z,30.55
2022-10-22T19:52:38.053Z,29.10
2022-10-22T19:55:44.862Z,33.88
2022-10-22T19:58:47.368Z,30.40
2022-10-22T20:01:50.377Z,29.90
2022-10-22T20:04:52.915Z,29.35
2022-10-22T20:07:55.164Z,28.73
2022-10-22T20:10:58.041Z,32.42
2022-10-22T20:14:00.328Z,29.33
2022-10-22T20:17:03.005Z,34.45
2022-10-22T20:20:05.899Z,35.63
2022-10-22T20:23:08.723Z,33.88
2022-10-22T20:26:11.300Z,31.37
2022-10-22T20:29:15.452Z,30.77
2022-10-22T20:32:17.692Z,30.80
2022-10-22T20:35:20.173Z,33.55
2022-10-22T20:38:22.419Z,30.92
2022-10-22T20:41:24.899Z,34.15
2022-10-22T20:44:27.118Z,30.47
2022-10-22T20:47:39.309Z,30.37
2022-10-22T20:50:52.230Z,34.13
2022-10-22T20:53:54.767Z,30.15
2022-10-22T20:56:57.538Z,30.88
2022-10-22T21:00:00.032Z,31.37
2022-10-22T21:03:02.251Z,30.02
2022-10-22T21:06:05.736Z,31.55
2022-10-22T21:09:09.209Z,34.38
2022-10-22T21:12:11.860Z,32.55
2022-10-22T21:15:14.132Z,36.20
2022-10-22T21:18:16.597Z,36.65
2022-10-22T21:21:19.940Z,35.05
2022-10-22T21:24:24.805Z,38.47
2022-10-22T21:27:27.151Z,38.47
2022-10-22T21:30:29.682Z,33.00
2022-10-22T21:33:35.140Z,33.60
2022-10-22T21:36:37.964Z,33.75
2022-10-22T21:39:42.112Z,33.50
2022-10-22T21:42:44.845Z,40.63
2022-10-22T21:45:47.206Z,31.37
2022-10-22T21:49:03.611Z,34.92
2022-10-22T21:52:07.116Z,36.42
2022-10-22T21:55:09.739Z,28.87
2022-10-22T21:58:11.991Z,35.33
2022-10-22T22:01:15.255Z,26.83
2022-10-22T22:04:17.800Z,29.12
2022-10-22T22:07:20.216Z,30.95
2022-10-22T22:10:25.172Z,27.75
2022-10-22T22:13:27.378Z,33.53
2022-10-22T22:16:32.236Z,34.57
2022-10-22T22:19:34.551Z,34.45
2022-10-22T22:22:37.067Z,35.92
2022-10-22T22:25:39.326Z,35.80
2022-10-22T22:28:41.940Z,37.63
2022-10-22T22:31:45.897Z,43.73
2022-10-22T22:34:48.435Z,39.45
2022-10-22T22:37:50.722Z,40.95
2022-10-22T22:40:53.305Z,35.95
2022-10-22T22:47:02.984Z,40.43
2022-10-22T22:50:05.669Z,38.40
2022-10-22T22:53:08.142Z,43.53
2022-10-22T22:56:20.146Z,35.05
2022-10-22T22:59:22.726Z,34.53
2022-10-22T23:02:25.067Z,36.30
2022-10-22T23:05:27.617Z,35.15
2022-10-22T23:08:29.848Z,38.40
2022-10-22T23:11:32.501Z,34.92
2022-10-22T23:14:34.802Z,36.33
2022-10-22T23:17:37.373Z,34.30
2022-10-22T23:20:39.574Z,34.22
2022-10-22T23:23:46.559Z,38.03
2022-10-22T23:26:50.965Z,35.92
2022-10-22T23:29:53.439Z,38.33
2022-10-22T23:32:55.779Z,36.87
2022-10-22T23:36:01.613Z,38.83
2022-10-22T23:39:08.931Z,41.45
2022-10-22T23:42:11.642Z,35.05
2022-10-22T23:45:14.189Z,39.28
2022-10-22T23:48:16.863Z,35.87
2022-10-22T23:51:20.342Z,37.63
2022-10-22T23:54:22.941Z,39.53
2022-10-22T23:57:25.316Z,38.80
